createdAt,value
2019-02-16T00:03:20.485Z,4.80
2019-02-16T00:08:24.012Z,3.87
2019-02-16T00:13:27.543Z,4.83
2019-02-16T00:18:31.088Z,4.03
2019-02-16T00:23:34.603Z,4.27
2019-02-16T00:28:38.123Z,4.43
2019-02-16T00:33:41.657Z,5.17
2019-02-16T00:38:44.937Z,4.17
2019-02-16T00:43:48.462Z,4.33
2019-02-16T00:48:51.987Z,3.37
2019-02-16T00:53:55.269Z,5.80
2019-02-16T00:58:58.556Z,5.53
2019-02-16T01:04:01.844Z,4.30
2019-02-16T01:09:07.099Z,3.20
2019-02-16T01:14:10.379Z,3.93
2019-02-16T01:19:13.656Z,4.60
2019-02-16T01:24:17.188Z,3.77
2019-02-16T01:29:20.474Z,4.10
2019-02-16T01:34:23.832Z,3.83
2019-02-16T01:39:27.402Z,2.97
2019-02-16T01:44:30.636Z,4.30
2019-02-16T01:49:34.174Z,5.37
2019-02-16T01:54:37.711Z,4.80
2019-02-16T01:59:41.232Z,4.80
2019-02-16T02:04:44.763Z,4.43
2019-02-16T02:09:48.305Z,3.97
2019-02-16T02:14:51.833Z,3.70
2019-02-16T02:19:55.362Z,3.50
2019-02-16T02:24:58.668Z,3.70
2019-02-16T02:30:02.188Z,4.43
2019-02-16T02:35:07.787Z,5.03
2019-02-16T02:40:11.313Z,4.83
2019-02-16T02:45:14.595Z,3.57
2019-02-16T02:50:17.876Z,5.07
2019-02-16T02:55:21.409Z,5.93
2019-02-16T03:00:24.945Z,5.00
2019-02-16T03:05:28.315Z,4.00
2019-02-16T03:10:31.603Z,3.77
2019-02-16T03:15:35.106Z,4.57
2019-02-16T03:20:38.389Z,3.93
2019-02-16T03:25:44.746Z,4.13
2019-02-16T03:30:51.450Z,5.07
2019-02-16T03:36:04.165Z,4.83
2019-02-16T03:41:07.442Z,3.60
2019-02-16T03:46:10.980Z,4.30
2019-02-16T03:51:14.496Z,4.63
2019-02-16T03:56:17.776Z,4.47
2019-02-16T04:01:21.347Z,5.03
2019-02-16T04:06:24.618Z,3.53
2019-02-16T04:11:27.891Z,5.20
2019-02-16T04:16:31.427Z,5.27
2019-02-16T04:21:34.958Z,4.40
2019-02-16T04:26:40.587Z,5.87
2019-02-16T04:31:43.500Z,4.63
2019-02-16T04:36:46.780Z,4.90
2019-02-16T04:41:50.230Z,4.77
2019-02-16T04:46:53.514Z,4.60
2019-02-16T04:51:56.789Z,3.87
2019-02-16T04:57:00.308Z,5.87
2019-02-16T05:02:03.658Z,4.50
2019-02-16T05:07:06.936Z,4.20
2019-02-16T05:12:10.456Z,4.77
2019-02-16T05:17:13.998Z,4.20
2019-02-16T05:22:17.514Z,4.37
2019-02-16T05:27:20.796Z,5.93
2019-02-16T05:32:24.329Z,3.30
2019-02-16T05:37:27.604Z,4.70
2019-02-16T05:42:30.882Z,3.57
2019-02-16T05:47:34.159Z,3.50
2019-02-16T05:52:37.431Z,4.53
2019-02-16T05:57:40.958Z,5.50
2019-02-16T06:02:44.230Z,5.20
2019-02-16T06:07:47.764Z,3.90
2019-02-16T06:12:51.042Z,4.37
2019-02-16T06:17:54.570Z,3.53
2019-02-16T06:23:04.386Z,3.37
2019-02-16T06:28:03.084Z,4.10
2019-02-16T06:33:06.388Z,3.73
2019-02-16T06:38:09.667Z,4.20
2019-02-16T06:43:12.943Z,4.00
2019-02-16T06:48:16.535Z,4.73
2019-02-16T06:53:19.808Z,3.73
2019-02-16T06:58:23.088Z,5.97
2019-02-16T07:03:26.597Z,5.37
2019-02-16T07:08:29.892Z,5.30
2019-02-16T07:13:33.160Z,5.03
2019-02-16T07:18:38.323Z,5.23
2019-02-16T07:23:41.603Z,3.97
2019-02-16T07:28:45.126Z,6.13
2019-02-16T07:33:48.657Z,3.93
2019-02-16T07:38:52.282Z,7.63
2019-02-16T07:43:57.200Z,3.27
2019-02-16T07:49:02.130Z,7.97
2019-02-16T07:54:23.267Z,4.10
2019-02-16T07:59:40.323Z,4.37
2019-02-16T08:04:48.387Z,6.33
2019-02-16T08:09:59.274Z,4.03
2019-02-16T08:15:04.433Z,5.03
2019-02-16T08:20:18.273Z,6.97
2019-02-16T08:25:26.099Z,5.33
2019-02-16T08:30:36.693Z,7.97
2019-02-16T08:35:41.607Z,4.50
2019-02-16T08:40:58.734Z,4.13
2019-02-16T08:46:03.892Z,8.50
2019-02-16T08:51:08.804Z,3.90
2019-02-16T08:56:22.492Z,5.73
2019-02-16T09:01:30.486Z,6.13
2019-02-16T09:06:52.216Z,4.50
2019-02-16T09:12:06.181Z,4.97
2019-02-16T09:17:13.191Z,4.33
2019-02-16T09:22:17.961Z,5.53
2019-02-16T09:27:37.978Z,5.53
2019-02-16T09:32:51.398Z,6.70
2019-02-16T09:37:56.254Z,7.20
2019-02-16T09:43:01.714Z,4.90
2019-02-16T09:48:23.085Z,4.87
2019-02-16T09:53:34.102Z,4.10
2019-02-16T09:58:42.382Z,6.27
2019-02-16T10:03:59.054Z,5.53
2019-02-16T10:09:04.225Z,7.60
2019-02-16T10:14:27.510Z,6.63
2019-02-16T10:19:32.669Z,6.43
2019-02-16T10:24:40.245Z,12.07
2019-02-16T10:30:01.079Z,6.70
2019-02-16T10:35:06.694Z,12.43
2019-02-16T10:40:17.046Z,8.73
2019-02-16T10:45:22.213Z,6.17
2019-02-16T10:50:27.136Z,8.87
2019-02-16T10:55:48.524Z,10.40
2019-02-16T11:01:05.442Z,9.47
2019-02-16T11:06:10.608Z,10.87
2019-02-16T11:11:30.258Z,9.63
2019-02-16T11:16:37.811Z,9.57
2019-02-16T11:21:42.743Z,10.57
2019-02-16T11:26:47.665Z,10.73
2019-02-16T11:32:02.143Z,10.80
2019-02-16T11:37:07.080Z,13.53
2019-02-16T11:42:12.008Z,12.47
2019-02-16T11:47:16.952Z,14.27
2019-02-16T11:52:24.585Z,12.13
2019-02-16T11:57:29.763Z,12.27
2019-02-16T12:02:39.816Z,12.50
2019-02-16T12:07:41.585Z,13.33
2019-02-16T12:12:58.685Z,14.83
2019-02-16T12:18:06.262Z,12.23
2019-02-16T12:23:11.191Z,11.37
2019-02-16T12:28:16.365Z,11.73
2019-02-16T12:33:27.407Z,13.20
2019-02-16T12:38:35.452Z,11.73
2019-02-16T12:43:52.371Z,15.40
2019-02-16T12:48:57.420Z,12.10
2019-02-16T12:54:05.496Z,15.20
2019-02-16T12:59:22.445Z,14.80
2019-02-16T13:04:30.605Z,11.83
2019-02-16T13:09:47.649Z,13.30
2019-02-16T13:14:55.479Z,13.23
2019-02-16T13:20:16.674Z,12.10
2019-02-16T13:25:30.724Z,12.57
2019-02-16T13:30:35.898Z,11.03
2019-02-16T13:35:41.077Z,9.33
2019-02-16T13:40:55.259Z,14.13
2019-02-16T13:46:03.253Z,12.60
2019-02-16T13:51:11.188Z,11.27
2019-02-16T13:56:16.130Z,10.07
2019-02-16T14:01:26.677Z,12.90
2019-02-16T14:06:37.703Z,11.13
2019-02-16T14:11:42.873Z,12.83
2019-02-16T14:16:48.036Z,12.60
2019-02-16T14:21:51.632Z,11.20
2019-02-16T14:26:55.185Z,13.43
2019-02-16T14:31:58.500Z,12.77
2019-02-16T14:37:03.663Z,14.43
2019-02-16T14:42:07.189Z,9.93
2019-02-16T14:47:10.717Z,13.00
2019-02-16T14:52:14.043Z,14.63
2019-02-16T14:57:17.347Z,10.97
2019-02-16T15:02:21.213Z,10.63
2019-02-16T15:07:24.547Z,14.63
2019-02-16T15:12:29.710Z,12.37
2019-02-16T15:17:32.995Z,11.17
2019-02-16T15:22:36.309Z,15.00
2019-02-16T15:27:39.864Z,13.93
2019-02-16T15:32:43.169Z,12.53
2019-02-16T15:37:46.463Z,13.63
2019-02-16T15:42:49.813Z,15.13
2019-02-16T15:47:53.389Z,15.23
2019-02-16T15:52:59.645Z,17.93
2019-02-16T15:58:02.946Z,17.63
2019-02-16T16:03:06.481Z,14.83
2019-02-16T16:08:29.465Z,16.03
2019-02-16T16:13:50.538Z,14.83
2019-02-16T16:18:55.720Z,17.00
2019-02-16T16:24:17.460Z,17.47
2019-02-16T16:29:40.035Z,17.63
2019-02-16T16:34:44.964Z,14.60
2019-02-16T16:39:55.588Z,18.30
2019-02-16T16:45:00.527Z,17.87
2019-02-16T16:50:22.052Z,16.07
2019-02-16T16:55:32.899Z,16.70
2019-02-16T17:00:50.259Z,14.63
2019-02-16T17:05:55.429Z,19.83
2019-02-16T17:11:00.602Z,20.53
2019-02-16T17:16:11.995Z,15.73
2019-02-16T17:21:31.975Z,14.80
2019-02-16T17:26:38.023Z,20.13
2019-02-16T17:31:43.109Z,19.10
2019-02-16T17:37:04.511Z,19.70
2019-02-16T17:42:12.276Z,21.13
2019-02-16T17:47:33.347Z,20.30
2019-02-16T17:52:44.197Z,21.47
2019-02-16T17:57:49.145Z,22.00
2019-02-16T18:02:56.768Z,24.50
2019-02-16T18:08:10.703Z,27.00
2019-02-16T18:13:18.832Z,29.77
2019-02-16T18:18:23.764Z,25.93
2019-02-16T18:23:37.874Z,24.77
2019-02-16T18:28:57.242Z,22.10
2019-02-16T18:34:15.018Z,33.50
2019-02-16T18:39:20.182Z,38.70
2019-02-16T18:44:25.146Z,48.33
2019-02-16T18:49:45.083Z,48.37
2019-02-16T18:55:11.015Z,33.67
2019-02-16T19:00:23.779Z,33.93
2019-02-16T19:05:28.931Z,31.30
2019-02-16T19:10:33.858Z,26.53
2019-02-16T19:15:44.762Z,27.67
2019-02-16T19:21:07.557Z,25.80
2019-02-16T19:26:12.498Z,21.60
2019-02-16T19:31:17.667Z,22.43
2019-02-16T19:36:25.254Z,20.50
2019-02-16T19:41:30.416Z,23.10
2019-02-16T19:46:41.209Z,21.30
2019-02-16T19:51:46.388Z,21.17
2019-02-16T19:57:00.582Z,22.73
2019-02-16T20:02:08.487Z,21.67
2019-02-16T20:07:19.085Z,24.87
2019-02-16T20:12:39.343Z,16.93
2019-02-16T20:18:01.331Z,20.40
2019-02-16T20:23:06.494Z,17.13
2019-02-16T20:28:31.195Z,21.77
2019-02-16T20:33:37.694Z,20.43
2019-02-16T20:38:43.617Z,19.00
2019-02-16T20:43:54.547Z,22.40
2019-02-16T20:49:14.917Z,20.80
2019-02-16T20:54:29.062Z,17.53
2019-02-16T20:59:35.524Z,23.57
2019-02-16T21:04:48.567Z,17.60
2019-02-16T21:09:56.395Z,16.77
2019-02-16T21:15:17.248Z,17.83
2019-02-16T21:20:38.806Z,19.83
2019-02-16T21:25:58.979Z,20.60
2019-02-16T21:31:10.223Z,21.70
2019-02-16T21:36:18.790Z,19.67
2019-02-16T21:41:32.893Z,17.67
2019-02-16T21:46:42.163Z,21.03
2019-02-16T21:51:52.763Z,21.53
2019-02-16T21:57:00.085Z,19.63
2019-02-16T22:02:15.685Z,21.77
2019-02-16T22:07:26.888Z,21.83
2019-02-16T22:12:34.474Z,21.10
2019-02-16T22:17:37.955Z,19.97
2019-02-16T22:22:41.250Z,20.43
2019-02-16T22:27:44.601Z,18.47
2019-02-16T22:32:51.189Z,18.07
2019-02-16T22:37:54.484Z,21.93
2019-02-16T22:42:58.027Z,23.57
2019-02-16T22:48:04.302Z,17.97
2019-02-16T22:53:08.717Z,18.23
2019-02-16T22:58:14.861Z,20.87
2019-02-16T23:03:21.106Z,20.17
2019-02-16T23:08:24.654Z,22.37
2019-02-16T23:13:28.181Z,20.67
2019-02-16T23:18:31.731Z,20.50
2019-02-16T23:23:36.729Z,23.73
2019-02-16T23:28:43.755Z,26.73
2019-02-16T23:33:47.052Z,28.57
2019-02-16T23:38:50.342Z,29.30
2019-02-16T23:43:53.637Z,29.43
2019-02-16T23:48:57.169Z,28.97
2019-02-16T23:54:00.700Z,26.43
2019-02-16T23:59:04.063Z,27.77
